METAR Data
IDs: Format: Raw Decoded Include TAF

Data at: 0540 UTC 26 Sep 2018

KDUH 260535Z AUTO 22007KT 10SM SCT020 SCT120 23/21 A2985 RMK AO2 T02300207
KDUH 260515Z AUTO 20005KT 10SM SCT020 SCT024 SCT090 23/21 A2984 RMK AO2 T02300208
KDUH 260455Z AUTO 22005KT 10SM -DZ SCT024 SCT037 SCT070 23/21 A2986 RMK AO2 T02300207
KDUH 260435Z AUTO 23006KT 10SM SCT031 SCT037 SCT100 23/21 A2987 RMK AO2 T02310208
KDUH 260415Z AUTO 23007KT 10SM BKN033 23/21 A2987 RMK AO2 T02320210
KDUH 260355Z AUTO 22009KT 170V230 10SM SCT031 23/21 A2987 RMK AO2 T02300207
KDUH 260335Z AUTO 21006KT 10SM SCT033 23/21 A2987 RMK AO2 T02300206
KDUH 260315Z AUTO 21007KT 10SM SCT035 23/21 A2986 RMK AO2 T02300207
KDUH 260255Z AUTO 21004KT 10SM SCT034 SCT040 23/21 A2987 RMK AO2 T02310208
KDUH 260235Z AUTO 23004KT 10SM SCT036 23/21 A2988 RMK AO2 T02300207
KDUH 260215Z AUTO 23005KT 10SM SCT027 SCT033 SCT040 23/21 A2987 RMK AO2 T02300208
KDUH 260155Z AUTO 23005KT 10SM SCT018 BKN045 OVC060 23/21 A2988 RMK AO2 T02300210
KDUH 260135Z AUTO 25006KT 10SM SCT005 BKN017 OVC029 23/21 A2987 RMK AO2 T02300210
KDUH 260115Z AUTO 26006G19KT 2SM +RA SCT005 BKN011 OVC019 23/21 A2986 RMK AO2 VIS 1V5 T02270207
KDUH 260055Z AUTO 23007KT 190V250 7SM -RA SCT019 BKN026 OVC043 23/21 A2985 RMK AO2 T02310210
KDUH 260035Z AUTO 22008G15KT 190V260 4SM +RA SCT019 BKN026 OVC043 23/21 A2985 RMK AO2 T02330210
KDUH 260015Z AUTO 21010G21KT 10SM RA SCT017 BKN025 OVC038 24/21 A2984 RMK AO2 T02350210
KDUH 252355Z AUTO 25009KT 7SM RA SCT019 OVC025 24/21 A2982 RMK AO2 T02350213 10250 20233
KDUH 252335Z AUTO 15004KT 10SM -RA BKN027 BKN040 OVC050 24/22 A2984 RMK AO2 T02350215
KDUH 252315Z AUTO 15003KT 10SM RA BKN050 OVC065 24/22 A2985 RMK AO2 T02360216
KDUH 252255Z AUTO 16003KT 5SM -RA SCT016 BKN039 OVC070 24/22 A2986 RMK AO2 T02370216
KDUH 252235Z AUTO 22003KT 7SM RA SCT021 BKN039 OVC085 24/22 A2986 RMK AO2 T02410216
KDUH 252215Z AUTO 19007KT 10SM SCT019 BKN027 OVC085 25/22 A2987 RMK AO2 T02450215
KDUH 252155Z AUTO 20005KT 10SM BKN020 BKN030 OVC120 25/22 A2987 RMK AO2 T02460216
KDUH 252135Z AUTO 21007KT 10SM SCT015 SCT020 BKN120 25/22 A2988 RMK AO2 T02460218
KDUH 252115Z AUTO 19004KT 10SM SCT012 25/22 A2985 RMK AO2 T02500220
KDUH 252055Z AUTO 22004KT 10SM SCT012 25/22 A2986 RMK AO2 T02450218
KDUH 252035Z AUTO 21005KT 10SM SCT011 SCT018 24/22 A2988 RMK AO2 T02430220
KDUH 252015Z AUTO 21003KT 10SM BKN012 BKN019 BKN046 24/22 A2990 RMK AO2 T02400220
KDUH 251955Z AUTO 17004KT 5SM RA SCT011 BKN016 OVC025 24/22 A2990 RMK AO2 T02370218
KDUH 251935Z AUTO 00000KT 10SM SCT014 BKN019 BKN027 24/22 A2992 RMK AO2 T02350215
KDUH 251915Z AUTO 19003KT 7SM -RA SCT016 SCT020 BKN029 24/22 A2992 RMK AO2 T02350215
KDUH 251855Z AUTO 00000KT 7SM RA BKN017 BKN024 OVC039 24/21 A2993 RMK AO2 T02350210
KDUH 251835Z AUTO 00000KT 10SM SCT019 BKN028 OVC041 24/21 A2993 RMK AO2 T02360210
KDUH 251815Z AUTO 20004KT 10SM SCT016 BKN023 OVC028 24/21 A2995 RMK AO2 T02350210
KDUH 251755Z AUTO 20003KT 10SM BKN014 OVC021 23/21 A2995 RMK AO2 T02310210 10232 20215
KDUH 251735Z AUTO 00000KT 10SM OVC014 23/21 A2995 RMK AO2 T02290207
KDUH 251715Z AUTO 21005KT 10SM OVC012 23/21 A2996 RMK AO2 T02280208
KDUH 251655Z AUTO 21004KT 5SM BR SCT008 OVC012 23/21 A2996 RMK AO2 T02260207
KDUH 251635Z AUTO 19005KT 3SM DZ SCT008 BKN012 OVC027 23/21 A2996 RMK AO2 T02270207
KDUH 251615Z AUTO 20005KT 10SM SCT007 SCT014 OVC027 23/21 A2997 RMK AO2 T02300208
KDUH 251555Z AUTO 21005KT 4SM BR SCT007 BKN017 OVC024 23/21 A2996 RMK AO2 T02300210
KDUH 251535Z AUTO 21008KT 4SM BR SCT011 BKN017 OVC033 23/21 A2996 RMK AO2 T02300206
KDUH 251515Z AUTO 21006KT 10SM SCT007 BKN031 OVC040 23/21 A2996 RMK AO2 T02300207
KDUH 251455Z AUTO 21005KT 10SM BKN010 OVC014 23/21 A2996 RMK AO2 T02270206
KDUH 251435Z AUTO 21008G14KT 10SM OVC008 23/21 A2997 RMK AO2 T02250206
KDUH 251415Z AUTO 19007KT 10SM OVC006 22/20 A2996 RMK AO2 T02210203
KDUH 251355Z AUTO 18007KT 10SM BKN006 OVC011 22/20 A2996 RMK AO2 T02190201
KDUH 251335Z AUTO 19005KT 7SM BKN008 OVC012 22/20 A2997 RMK AO2 T02180201
KDUH 251315Z AUTO 18008KT 5SM BR OVC008 22/20 A2996 RMK AO2 T02170200
KDUH 251255Z AUTO 19007KT 4SM -DZ OVC008 22/20 A2996 RMK AO2 T02160200
KDUH 251235Z AUTO 20008KT 5SM BR OVC008 22/20 A2997 RMK AO2 T02150199
KDUH 251215Z AUTO 20005KT 4SM BR OVC008 22/20 A2997 RMK AO2 T02150200
KDUH 251155Z AUTO 19006KT 4SM BR OVC006 22/20 A2996 RMK AO2 T02150200 10215 20201
KDUH 251135Z AUTO 20004KT 5SM DZ OVC006 22/20 A2997 RMK AO2 T02150198
KDUH 251115Z AUTO 19004KT 5SM -RA OVC006 21/20 A2997 RMK AO2 T02130197
KDUH 251055Z AUTO 20004KT 5SM BR OVC006 21/20 A2998 RMK AO2 T02130197
KDUH 251035Z AUTO 19004KT 7SM BKN006 OVC010 21/20 A2998 RMK AO2 T02120196
KDUH 251015Z AUTO 19005KT 4SM RA BKN006 OVC010 21/20 A2997 RMK AO2 T02120196
KDUH 250955Z AUTO 21004KT 10SM BKN006 OVC010 21/20 A2997 RMK AO2 T02110195
KDUH 250935Z AUTO 20004KT 10SM BKN006 OVC010 21/20 A2997 RMK AO2 T02100195
KDUH 250915Z AUTO 20004KT 10SM OVC006 21/20 A2997 RMK AO2 T02100195
KDUH 250855Z AUTO 20005KT 10SM OVC006 21/19 A2996 RMK AO2 T02100193
KDUH 250835Z AUTO 20005KT 10SM OVC006 21/19 A2996 RMK AO2 T02080192
KDUH 250815Z AUTO 20006KT 10SM BKN006 OVC011 21/19 A2996 RMK AO2 T02060191
KDUH 250755Z AUTO 19004KT 10SM BKN006 OVC012 21/19 A2996 RMK AO2 T02050190
KDUH 250735Z AUTO 20007KT 5SM RA BKN006 OVC011 20/19 A2997 RMK AO2 T02030188
KDUH 250715Z AUTO 00000KT 5SM RA BKN006 OVC009 20/19 A2998 RMK AO2 T02020187
KDUH 250655Z AUTO 17004KT 5SM RA OVC006 20/19 A2998 RMK AO2 T02020187
KDUH 250635Z AUTO 15003KT 4SM DZ OVC006 20/19 A2998 RMK AO2 T02020187
KDUH 250615Z AUTO 16003KT 4SM DZ BKN006 OVC009 20/19 A2998 RMK AO2 T02010186
KDUH 250555Z AUTO 16006KT 3SM +DZ BKN006 OVC009 20/19 A2999 RMK AO2 T02020187 10202 20191 402020092
KDUH 250535Z AUTO 18006KT 5SM -DZ BKN008 OVC011 20/19 A2999 RMK AO2 T02020187
KDUH 250515Z AUTO 18007KT 150V210 7SM -DZ BKN008 OVC013 20/19 A3000 RMK AO2 T02020187
KDUH 250455Z AUTO 17004KT 4SM DZ OVC006 20/19 A3000 RMK AO2 T02010186
KDUH 250435Z AUTO 17005KT 5SM BR OVC006 20/19 A3001 RMK AO2 T02000185
KDUH 250415Z AUTO 16007KT 4SM -DZ BKN006 OVC009 20/19 A3001 RMK AO2 T02000185
KDUH 250355Z AUTO 15007KT 3SM RA BKN006 OVC009 20/19 A3002 RMK AO2 T02000185
KDUH 250335Z AUTO 15005KT 7SM BKN006 BKN012 OVC019 20/19 A3002 RMK AO2 T02000185
KDUH 250315Z AUTO 14005KT 7SM -RA BKN006 BKN010 OVC044 20/18 A3003 RMK AO2 T01980183
KDUH 250255Z AUTO 14005KT 7SM RA BKN006 BKN022 OVC050 20/18 A3003 RMK AO2 T01970182
KDUH 250235Z AUTO 15005KT 7SM -RA BKN006 OVC024 20/18 A3003 RMK AO2 T01970182
KDUH 250215Z AUTO 15005KT 7SM +DZ OVC006 20/18 A3003 RMK AO2 T01960181
KDUH 250155Z AUTO 14006KT 10SM -RA OVC004 20/18 A3003 RMK AO2 T01960181
KDUH 250135Z AUTO 13003KT 7SM -RA OVC004 20/18 A3004 RMK AO2 T01950180
KDUH 250115Z AUTO 12004KT 5SM -RA OVC004 19/18 A3004 RMK AO2 T01930178
KDUH 250055Z AUTO 12003KT 7SM OVC004 19/18 A3004 RMK AO2 T01920177
KDUH 250035Z AUTO 12004KT 10SM OVC004 19/18 A3004 RMK AO2 T01910176
KDUH 250015Z AUTO 11003KT 10SM -RA OVC004 19/18 A3004 RMK AO2 T01910176
KDUH 242355Z AUTO 13004KT 10SM BKN006 OVC011 19/18 A3005 RMK AO2 T01910176 10201 20185
KDUH 242335Z AUTO 11004KT 5SM -RA BKN006 BKN012 OVC032 20/18 A3005 RMK AO2 T01950178
KDUH 242315Z AUTO 13005KT 7SM RA BKN004 BKN033 OVC060 20/19 A3006 RMK AO2 T02000185
KDUH 242255Z AUTO 13005KT 3SM +RA SCT015 BKN029 OVC060 20/19 A3005 RMK AO2 T02000185
KDUH 242235Z AUTO 15006KT 1 3/4SM +RA SCT006 BKN015 OVC038 20/18 A3006 RMK AO2 T02000184
KDUH 242215Z AUTO 15005KT 3SM RA BKN006 BKN017 OVC038 20/18 A3007 RMK AO2 T01980182
KDUH 242155Z AUTO 14004KT 2 1/2SM +RA BKN006 BKN013 OVC018 20/18 A3007 RMK AO2 T01970180
KDUH 242135Z AUTO 00000KT 3SM RA SCT006 BKN014 OVC060 20/18 A3007 RMK AO2 T01960180
KDUH 242115Z AUTO 12003KT 5SM RA OVC014 20/18 A3007 RMK AO2 T01960178
KDUH 242055Z AUTO 13003KT 5SM -RA OVC014 20/18 A3007 RMK AO2 T01950177
KDUH 242035Z AUTO 11003KT 7SM OVC014 19/18 A3007 RMK AO2 T01930175
KDUH 242015Z AUTO 10003KT 5SM BR SCT011 BKN018 OVC023 19/17 A3008 RMK AO2 T01900172
KDUH 241955Z AUTO 11004KT 5SM -RA OVC011 19/17 A3008 RMK AO2 T01910173
KDUH 241935Z AUTO 00000KT 4SM BR OVC011 19/17 A3009 RMK AO2 T01880170
KDUH 241915Z AUTO 00000KT 7SM OVC011 19/17 A3009 RMK AO2 T01870169
KDUH 241855Z AUTO 00000KT 5SM -RA OVC011 19/17 A3010 RMK AO2 T01850165
KDUH 241835Z AUTO 12003KT 7SM -RA OVC011 19/16 A3012 RMK AO2 T01860160
KDUH 241815Z AUTO 00000KT 10SM OVC011 19/16 A3013 RMK AO2 T01870158
KDUH 241755Z AUTO 10004KT 10SM OVC011 19/16 A3013 RMK AO2 T01860159 10200 20097